sensor_id;sensor_type;location;lat;lon;timestamp;temperature;humidity
34147;DHT22;20423;49.448;9.056;2023-06-14T00:00:47;15.20;82.50
34147;DHT22;20423;49.448;9.056;2023-06-14T00:03:14;15.20;82.70
34147;DHT22;20423;49.448;9.056;2023-06-14T00:05:43;15.20;82.80
34147;DHT22;20423;49.448;9.056;2023-06-14T00:08:09;15.10;83.10
34147;DHT22;20423;49.448;9.056;2023-06-14T00:10:35;15.00;83.30
34147;DHT22;20423;49.448;9.056;2023-06-14T00:13:01;15.00;83.80
34147;DHT22;20423;49.448;9.056;2023-06-14T00:15:30;14.90;84.10
34147;DHT22;20423;49.448;9.056;2023-06-14T00:17:59;14.90;84.30
34147;DHT22;20423;49.448;9.056;2023-06-14T00:20:26;14.90;84.50
34147;DHT22;20423;49.448;9.056;2023-06-14T00:22:52;14.90;84.80
34147;DHT22;20423;49.448;9.056;2023-06-14T00:28:05;14.90;85.70
34147;DHT22;20423;49.448;9.056;2023-06-14T00:30:36;14.80;85.70
34147;DHT22;20423;49.448;9.056;2023-06-14T00:33:01;14.70;86.10
34147;DHT22;20423;49.448;9.056;2023-06-14T00:35:27;14.70;86.30
34147;DHT22;20423;49.448;9.056;2023-06-14T00:37:53;14.70;86.70
34147;DHT22;20423;49.448;9.056;2023-06-14T00:40:20;14.70;87.00
34147;DHT22;20423;49.448;9.056;2023-06-14T00:42:46;14.60;87.40
34147;DHT22;20423;49.448;9.056;2023-06-14T00:45:12;14.50;87.70
34147;DHT22;20423;49.448;9.056;2023-06-14T00:47:37;14.50;88.20
34147;DHT22;20423;49.448;9.056;2023-06-14T00:50:06;14.50;88.10
34147;DHT22;20423;49.448;9.056;2023-06-14T00:52:32;14.50;88.20
34147;DHT22;20423;49.448;9.056;2023-06-14T00:55:16;14.40;88.40
34147;DHT22;20423;49.448;9.056;2023-06-14T00:57:42;14.50;88.50
34147;DHT22;20423;49.448;9.056;2023-06-14T01:00:07;14.50;88.60
34147;DHT22;20423;49.448;9.056;2023-06-14T01:02:38;14.50;88.70
34147;DHT22;20423;49.448;9.056;2023-06-14T01:05:04;14.50;88.80
34147;DHT22;20423;49.448;9.056;2023-06-14T01:12:58;14.40;89.80
34147;DHT22;20423;49.448;9.056;2023-06-14T01:15:25;14.40;90.00
34147;DHT22;20423;49.448;9.056;2023-06-14T01:17:58;14.30;90.00
34147;DHT22;20423;49.448;9.056;2023-06-14T01:20:29;14.30;90.10
34147;DHT22;20423;49.448;9.056;2023-06-14T01:22:56;14.30;90.40
34147;DHT22;20423;49.448;9.056;2023-06-14T01:25:22;14.20;90.60
34147;DHT22;20423;49.448;9.056;2023-06-14T01:27:53;14.20;90.60
34147;DHT22;20423;49.448;9.056;2023-06-14T01:33:47;14.20;90.70
34147;DHT22;20423;49.448;9.056;2023-06-14T01:36:13;14.30;90.90
34147;DHT22;20423;49.448;9.056;2023-06-14T01:38:39;14.30;90.90
34147;DHT22;20423;49.448;9.056;2023-06-14T01:41:05;14.30;91.10
34147;DHT22;20423;49.448;9.056;2023-06-14T01:43:31;14.20;91.30
34147;DHT22;20423;49.448;9.056;2023-06-14T01:45:58;14.10;91.40
34147;DHT22;20423;49.448;9.056;2023-06-14T01:48:26;14.20;91.50
34147;DHT22;20423;49.448;9.056;2023-06-14T01:50:52;14.20;91.50
34147;DHT22;20423;49.448;9.056;2023-06-14T01:53:19;14.30;91.70
34147;DHT22;20423;49.448;9.056;2023-06-14T01:56:01;14.20;91.70
34147;DHT22;20423;49.448;9.056;2023-06-14T01:58:29;14.20;91.90
34147;DHT22;20423;49.448;9.056;2023-06-14T02:00:57;14.20;91.90
34147;DHT22;20423;49.448;9.056;2023-06-14T02:03:23;14.20;92.20
34147;DHT22;20423;49.448;9.056;2023-06-14T02:05:51;14.10;92.40
34147;DHT22;20423;49.448;9.056;2023-06-14T02:08:17;14.00;92.50
34147;DHT22;20423;49.448;9.056;2023-06-14T02:10:43;14.00;92.90
34147;DHT22;20423;49.448;9.056;2023-06-14T02:16:37;14.00;93.40
34147;DHT22;20423;49.448;9.056;2023-06-14T02:19:04;14.00;93.60
34147;DHT22;20423;49.448;9.056;2023-06-14T02:21:30;13.90;93.90
34147;DHT22;20423;49.448;9.056;2023-06-14T02:23:55;13.90;94.30
34147;DHT22;20423;49.448;9.056;2023-06-14T02:26:21;13.90;94.50
34147;DHT22;20423;49.448;9.056;2023-06-14T02:28:48;13.80;94.70
34147;DHT22;20423;49.448;9.056;2023-06-14T02:31:13;13.80;95.00
34147;DHT22;20423;49.448;9.056;2023-06-14T02:33:39;13.80;95.20
34147;DHT22;20423;49.448;9.056;2023-06-14T02:36:05;13.70;95.60
34147;DHT22;20423;49.448;9.056;2023-06-14T02:38:34;13.70;95.90
34147;DHT22;20423;49.448;9.056;2023-06-14T02:40:59;13.60;96.10
34147;DHT22;20423;49.448;9.056;2023-06-14T02:43:28;13.70;96.30
34147;DHT22;20423;49.448;9.056;2023-06-14T02:45:54;13.60;96.50
34147;DHT22;20423;49.448;9.056;2023-06-14T02:48:20;13.60;97.00
34147;DHT22;20423;49.448;9.056;2023-06-14T02:50:45;13.60;97.00
34147;DHT22;20423;49.448;9.056;2023-06-14T02:53:11;13.50;97.50
34147;DHT22;20423;49.448;9.056;2023-06-14T02:55:37;13.40;98.00
34147;DHT22;20423;49.448;9.056;2023-06-14T02:58:05;13.30;98.50
34147;DHT22;20423;49.448;9.056;2023-06-14T03:00:31;13.20;98.90
34147;DHT22;20423;49.448;9.056;2023-06-14T03:02:57;13.20;99.30
34147;DHT22;20423;49.448;9.056;2023-06-14T03:05:23;13.20;99.50
34147;DHT22;20423;49.448;9.056;2023-06-14T03:07:49;13.20;99.70
34147;DHT22;20423;49.448;9.056;2023-06-14T03:10:16;13.20;99.90
34147;DHT22;20423;49.448;9.056;2023-06-14T03:12:44;13.20;99.90
34147;DHT22;20423;49.448;9.056;2023-06-14T03:15:11;13.30;99.90
34147;DHT22;20423;49.448;9.056;2023-06-14T03:17:41;13.30;99.90
34147;DHT22;20423;49.448;9.056;2023-06-14T03:20:11;13.40;99.90
34147;DHT22;20423;49.448;9.056;2023-06-14T03:22:37;13.40;99.90
34147;DHT22;20423;49.448;9.056;2023-06-14T03:25:03;13.50;99.90
34147;DHT22;20423;49.448;9.056;2023-06-14T03:27:32;13.50;99.90
34147;DHT22;20423;49.448;9.056;2023-06-14T03:29:59;13.50;99.90
34147;DHT22;20423;49.448;9.056;2023-06-14T03:32:25;13.40;99.90
34147;DHT22;20423;49.448;9.056;2023-06-14T03:34:51;13.40;99.90
34147;DHT22;20423;49.448;9.056;2023-06-14T03:37:21;13.40;99.90
34147;DHT22;20423;49.448;9.056;2023-06-14T03:39:47;13.40;99.90
34147;DHT22;20423;49.448;9.056;2023-06-14T03:42:18;13.30;99.90
34147;DHT22;20423;49.448;9.056;2023-06-14T03:44:45;13.40;99.90
34147;DHT22;20423;49.448;9.056;2023-06-14T03:47:11;13.40;99.90
34147;DHT22;20423;49.448;9.056;2023-06-14T03:49:37;13.40;99.90
34147;DHT22;20423;49.448;9.056;2023-06-14T03:52:03;13.40;99.90
34147;DHT22;20423;49.448;9.056;2023-06-14T03:54:29;13.40;99.90
34147;DHT22;20423;49.448;9.056;2023-06-14T03:56:58;13.40;99.90
34147;DHT22;20423;49.448;9.056;2023-06-14T03:59:24;13.40;99.90
34147;DHT22;20423;49.448;9.056;2023-06-14T04:01:51;13.40;99.90
34147;DHT22;20423;49.448;9.056;2023-06-14T04:04:19;13.40;99.90
34147;DHT22;20423;49.448;9.056;2023-06-14T04:06:44;13.40;99.90
34147;DHT22;20423;49.448;9.056;2023-06-14T04:09:13;13.40;99.90
34147;DHT22;20423;49.448;9.056;2023-06-14T04:11:40;13.40;99.90
34147;DHT22;20423;49.448;9.056;2023-06-14T04:14:12;13.40;99.90
34147;DHT22;20423;49.448;9.056;2023-06-14T04:16:37;13.40;99.90
34147;DHT22;20423;49.448;9.056;2023-06-14T04:19:03;13.40;99.90
34147;DHT22;20423;49.448;9.056;2023-06-14T04:21:29;13.40;99.90
34147;DHT22;20423;49.448;9.056;2023-06-14T04:23:57;13.50;99.90
34147;DHT22;20423;49.448;9.056;2023-06-14T04:26:26;13.50;99.90
34147;DHT22;20423;49.448;9.056;2023-06-14T04:28:56;13.40;99.90
34147;DHT22;20423;49.448;9.056;2023-06-14T04:31:23;13.40;99.90
34147;DHT22;20423;49.448;9.056;2023-06-14T04:33:58;13.40;99.90
34147;DHT22;20423;49.448;9.056;2023-06-14T04:39:16;13.50;99.90
34147;DHT22;20423;49.448;9.056;2023-06-14T04:41:44;13.50;99.90
34147;DHT22;20423;49.448;9.056;2023-06-14T04:44:10;13.50;99.90
34147;DHT22;20423;49.448;9.056;2023-06-14T04:46:40;13.60;99.90
34147;DHT22;20423;49.448;9.056;2023-06-14T04:49:19;13.60;99.90
34147;DHT22;20423;49.448;9.056;2023-06-14T04:51:45;13.60;99.90
34147;DHT22;20423;49.448;9.056;2023-06-14T04:54:11;13.60;99.90
34147;DHT22;20423;49.448;9.056;2023-06-14T05:00:09;13.70;99.90
34147;DHT22;20423;49.448;9.056;2023-06-14T05:02:37;13.70;99.90
34147;DHT22;20423;49.448;9.056;2023-06-14T05:05:04;13.80;99.90
34147;DHT22;20423;49.448;9.056;2023-06-14T05:07:33;13.80;99.90
34147;DHT22;20423;49.448;9.056;2023-06-14T05:10:02;13.90;99.90
34147;DHT22;20423;49.448;9.056;2023-06-14T05:12:28;13.90;99.90
34147;DHT22;20423;49.448;9.056;2023-06-14T05:14:54;14.00;99.90
34147;DHT22;20423;49.448;9.056;2023-06-14T05:17:36;14.00;99.90
34147;DHT22;20423;49.448;9.056;2023-06-14T05:20:02;14.10;99.90
34147;DHT22;20423;49.448;9.056;2023-06-14T05:22:27;14.10;99.90
34147;DHT22;20423;49.448;9.056;2023-06-14T05:24:53;14.10;99.90
34147;DHT22;20423;49.448;9.056;2023-06-14T05:27:18;14.20;99.90
34147;DHT22;20423;49.448;9.056;2023-06-14T05:29:44;14.20;99.90
34147;DHT22;20423;49.448;9.056;2023-06-14T05:32:10;14.30;99.90
34147;DHT22;20423;49.448;9.056;2023-06-14T05:34:35;14.30;99.90
34147;DHT22;20423;49.448;9.056;2023-06-14T05:37:01;14.30;99.90
34147;DHT22;20423;49.448;9.056;2023-06-14T05:39:26;14.40;99.90
34147;DHT22;20423;49.448;9.056;2023-06-14T05:41:52;14.40;99.90
34147;DHT22;20423;49.448;9.056;2023-06-14T05:44:17;14.50;99.90
34147;DHT22;20423;49.448;9.056;2023-06-14T05:46:43;14.60;99.90
34147;DHT22;20423;49.448;9.056;2023-06-14T05:49:09;14.60;99.90
34147;DHT22;20423;49.448;9.056;2023-06-14T05:51:34;14.70;99.90
34147;DHT22;20423;49.448;9.056;2023-06-14T05:54:00;14.80;99.90
34147;DHT22;20423;49.448;9.056;2023-06-14T05:56:26;14.80;99.90
34147;DHT22;20423;49.448;9.056;2023-06-14T05:58:51;14.90;99.90
34147;DHT22;20423;49.448;9.056;2023-06-14T06:01:26;14.90;99.90
34147;DHT22;20423;49.448;9.056;2023-06-14T06:03:52;14.90;99.90
34147;DHT22;20423;49.448;9.056;2023-06-14T06:06:17;15.00;99.90
34147;DHT22;20423;49.448;9.056;2023-06-14T06:08:43;15.10;99.90
34147;DHT22;20423;49.448;9.056;2023-06-14T06:11:09;15.20;99.90
34147;DHT22;20423;49.448;9.056;2023-06-14T06:13:34;15.30;99.90
34147;DHT22;20423;49.448;9.056;2023-06-14T06:16:01;15.30;99.90
34147;DHT22;20423;49.448;9.056;2023-06-14T06:18:27;15.40;99.90
34147;DHT22;20423;49.448;9.056;2023-06-14T06:20:52;15.50;99.90
34147;DHT22;20423;49.448;9.056;2023-06-14T06:23:18;15.50;99.90
34147;DHT22;20423;49.448;9.056;2023-06-14T06:25:59;15.60;99.90
34147;DHT22;20423;49.448;9.056;2023-06-14T06:28:24;15.70;99.90
34147;DHT22;20423;49.448;9.056;2023-06-14T06:30:50;15.70;99.90
34147;DHT22;20423;49.448;9.056;2023-06-14T06:33:16;15.70;99.90
34147;DHT22;20423;49.448;9.056;2023-06-14T06:35:41;15.70;99.90
34147;DHT22;20423;49.448;9.056;2023-06-14T06:38:08;15.70;99.90
34147;DHT22;20423;49.448;9.056;2023-06-14T06:40:35;15.70;99.90
34147;DHT22;20423;49.448;9.056;2023-06-14T06:43:13;15.80;99.90
34147;DHT22;20423;49.448;9.056;2023-06-14T06:45:44;15.80;99.90
34147;DHT22;20423;49.448;9.056;2023-06-14T06:48:09;15.80;99.90
34147;DHT22;20423;49.448;9.056;2023-06-14T06:50:35;15.80;99.90
34147;DHT22;20423;49.448;9.056;2023-06-14T06:53:01;15.80;99.90
34147;DHT22;20423;49.448;9.056;2023-06-14T06:55:27;15.90;99.90
34147;DHT22;20423;49.448;9.056;2023-06-14T06:57:53;16.00;99.90
34147;DHT22;20423;49.448;9.056;2023-06-14T07:00:19;16.00;99.90
34147;DHT22;20423;49.448;9.056;2023-06-14T07:02:45;16.00;99.90
34147;DHT22;20423;49.448;9.056;2023-06-14T07:05:17;16.20;99.90
34147;DHT22;20423;49.448;9.056;2023-06-14T07:07:42;16.30;99.90
34147;DHT22;20423;49.448;9.056;2023-06-14T07:10:08;16.70;99.90
34147;DHT22;20423;49.448;9.056;2023-06-14T07:12:34;17.40;99.90
34147;DHT22;20423;49.448;9.056;2023-06-14T07:15:05;18.50;99.60
34147;DHT22;20423;49.448;9.056;2023-06-14T07:17:32;19.90;97.70
34147;DHT22;20423;49.448;9.056;2023-06-14T07:19:57;21.00;95.30
34147;DHT22;20423;49.448;9.056;2023-06-14T07:22:23;21.90;93.60
34147;DHT22;20423;49.448;9.056;2023-06-14T07:24:49;22.20;92.00
34147;DHT22;20423;49.448;9.056;2023-06-14T07:27:15;22.50;90.90
34147;DHT22;20423;49.448;9.056;2023-06-14T07:29:40;23.10;89.60
34147;DHT22;20423;49.448;9.056;2023-06-14T07:32:06;23.20;88.50
34147;DHT22;20423;49.448;9.056;2023-06-14T07:34:31;23.30;86.60
34147;DHT22;20423;49.448;9.056;2023-06-14T07:36:57;23.00;86.50
34147;DHT22;20423;49.448;9.056;2023-06-14T07:39:23;22.80;86.60
34147;DHT22;20423;49.448;9.056;2023-06-14T07:41:48;22.70;86.20
34147;DHT22;20423;49.448;9.056;2023-06-14T07:44:14;21.60;89.40
34147;DHT22;20423;49.448;9.056;2023-06-14T07:46:41;20.50;91.90
34147;DHT22;20423;49.448;9.056;2023-06-14T07:49:07;19.60;93.40
34147;DHT22;20423;49.448;9.056;2023-06-14T07:51:32;19.10;94.40
34147;DHT22;20423;49.448;9.056;2023-06-14T07:56:55;18.40;95.30
34147;DHT22;20423;49.448;9.056;2023-06-14T07:59:21;18.90;95.10
34147;DHT22;20423;49.448;9.056;2023-06-14T08:01:47;20.70;93.00
34147;DHT22;20423;49.448;9.056;2023-06-14T08:04:16;22.60;90.70
34147;DHT22;20423;49.448;9.056;2023-06-14T08:06:42;23.80;86.00
34147;DHT22;20423;49.448;9.056;2023-06-14T08:09:11;24.30;81.80
34147;DHT22;20423;49.448;9.056;2023-06-14T08:11:37;25.30;81.10
34147;DHT22;20423;49.448;9.056;2023-06-14T08:14:03;25.50;78.80
34147;DHT22;20423;49.448;9.056;2023-06-14T08:16:29;25.10;76.50
34147;DHT22;20423;49.448;9.056;2023-06-14T08:18:55;25.20;75.20
34147;DHT22;20423;49.448;9.056;2023-06-14T08:21:20;25.10;75.10
34147;DHT22;20423;49.448;9.056;2023-06-14T08:23:46;25.00;74.20
34147;DHT22;20423;49.448;9.056;2023-06-14T08:26:12;25.00;75.20
34147;DHT22;20423;49.448;9.056;2023-06-14T08:28:38;25.40;74.50
34147;DHT22;20423;49.448;9.056;2023-06-14T08:31:04;26.00;72.30
34147;DHT22;20423;49.448;9.056;2023-06-14T08:33:29;26.20;71.10
34147;DHT22;20423;49.448;9.056;2023-06-14T08:35:55;26.60;71.80
34147;DHT22;20423;49.448;9.056;2023-06-14T08:38:20;26.80;70.80
34147;DHT22;20423;49.448;9.056;2023-06-14T08:40:47;27.00;69.70
34147;DHT22;20423;49.448;9.056;2023-06-14T08:43:14;27.30;65.70
34147;DHT22;20423;49.448;9.056;2023-06-14T08:45:40;26.80;65.70
34147;DHT22;20423;49.448;9.056;2023-06-14T08:48:06;27.00;66.70
34147;DHT22;20423;49.448;9.056;2023-06-14T08:50:32;27.50;66.20
34147;DHT22;20423;49.448;9.056;2023-06-14T08:53:00;27.50;65.30
34147;DHT22;20423;49.448;9.056;2023-06-14T08:55:28;26.90;66.50
34147;DHT22;20423;49.448;9.056;2023-06-14T08:57:55;26.80;66.30
34147;DHT22;20423;49.448;9.056;2023-06-14T09:00:23;26.60;66.40
34147;DHT22;20423;49.448;9.056;2023-06-14T09:02:49;26.40;65.50
34147;DHT22;20423;49.448;9.056;2023-06-14T09:05:15;26.40;67.00
34147;DHT22;20423;49.448;9.056;2023-06-14T09:07:43;26.40;64.00
34147;DHT22;20423;49.448;9.056;2023-06-14T09:10:13;27.00;63.80
34147;DHT22;20423;49.448;9.056;2023-06-14T09:12:39;27.20;62.40
34147;DHT22;20423;49.448;9.056;2023-06-14T09:15:05;26.80;62.30
34147;DHT22;20423;49.448;9.056;2023-06-14T09:17:38;26.80;62.70
34147;DHT22;20423;49.448;9.056;2023-06-14T09:20:04;26.80;62.30
34147;DHT22;20423;49.448;9.056;2023-06-14T09:22:36;27.10;59.80
34147;DHT22;20423;49.448;9.056;2023-06-14T09:25:03;27.20;60.30
34147;DHT22;20423;49.448;9.056;2023-06-14T09:27:29;27.40;57.50
34147;DHT22;20423;49.448;9.056;2023-06-14T09:29:55;27.60;59.10
34147;DHT22;20423;49.448;9.056;2023-06-14T09:32:23;27.50;59.00
34147;DHT22;20423;49.448;9.056;2023-06-14T09:34:48;27.70;58.30
34147;DHT22;20423;49.448;9.056;2023-06-14T09:37:26;28.10;57.80
34147;DHT22;20423;49.448;9.056;2023-06-14T09:39:51;28.00;58.00
34147;DHT22;20423;49.448;9.056;2023-06-14T09:42:17;28.40;57.20
34147;DHT22;20423;49.448;9.056;2023-06-14T09:44:47;28.50;57.60
34147;DHT22;20423;49.448;9.056;2023-06-14T09:47:17;28.30;58.20
34147;DHT22;20423;49.448;9.056;2023-06-14T09:49:43;28.10;59.50
34147;DHT22;20423;49.448;9.056;2023-06-14T09:52:13;28.90;58.60
34147;DHT22;20423;49.448;9.056;2023-06-14T09:54:40;29.50;57.40
34147;DHT22;20423;49.448;9.056;2023-06-14T09:57:11;29.30;57.30
34147;DHT22;20423;49.448;9.056;2023-06-14T09:59:37;28.80;57.30
34147;DHT22;20423;49.448;9.056;2023-06-14T10:02:06;28.10;54.60
34147;DHT22;20423;49.448;9.056;2023-06-14T10:04:33;26.90;57.20
34147;DHT22;20423;49.448;9.056;2023-06-14T10:07:05;26.70;58.20
34147;DHT22;20423;49.448;9.056;2023-06-14T10:09:31;27.00;58.60
34147;DHT22;20423;49.448;9.056;2023-06-14T10:14:50;25.80;58.60
34147;DHT22;20423;49.448;9.056;2023-06-14T10:20:53;25.50;60.40
34147;DHT22;20423;49.448;9.056;2023-06-14T10:23:21;26.50;59.50
34147;DHT22;20423;49.448;9.056;2023-06-14T10:25:54;27.00;58.50
34147;DHT22;20423;49.448;9.056;2023-06-14T10:28:21;26.70;58.00
34147;DHT22;20423;49.448;9.056;2023-06-14T10:31:03;26.10;59.50
34147;DHT22;20423;49.448;9.056;2023-06-14T10:33:32;25.20;61.00
34147;DHT22;20423;49.448;9.056;2023-06-14T10:38:42;23.50;64.10
34147;DHT22;20423;49.448;9.056;2023-06-14T10:41:07;23.60;66.30
34147;DHT22;20423;49.448;9.056;2023-06-14T10:43:33;23.80;64.70
34147;DHT22;20423;49.448;9.056;2023-06-14T10:46:15;23.60;63.50
34147;DHT22;20423;49.448;9.056;2023-06-14T10:48:41;23.40;63.20
34147;DHT22;20423;49.448;9.056;2023-06-14T10:51:17;23.20;64.70
34147;DHT22;20423;49.448;9.056;2023-06-14T10:53:46;23.40;65.40
34147;DHT22;20423;49.448;9.056;2023-06-14T10:56:28;24.80;64.40
34147;DHT22;20423;49.448;9.056;2023-06-14T10:58:55;25.20;62.20
34147;DHT22;20423;49.448;9.056;2023-06-14T11:01:36;25.10;59.50
34147;DHT22;20423;49.448;9.056;2023-06-14T11:04:09;24.70;60.00
34147;DHT22;20423;49.448;9.056;2023-06-14T11:06:45;24.10;61.20
34147;DHT22;20423;49.448;9.056;2023-06-14T11:11:57;23.90;65.00
34147;DHT22;20423;49.448;9.056;2023-06-14T11:14:24;24.50;60.20
34147;DHT22;20423;49.448;9.056;2023-06-14T11:16:59;25.50;59.00
34147;DHT22;20423;49.448;9.056;2023-06-14T11:19:25;26.20;58.90
34147;DHT22;20423;49.448;9.056;2023-06-14T11:21:54;25.80;59.30
34147;DHT22;20423;49.448;9.056;2023-06-14T11:24:19;24.40;61.40
34147;DHT22;20423;49.448;9.056;2023-06-14T11:26:46;23.80;64.90
34147;DHT22;20423;49.448;9.056;2023-06-14T11:29:12;23.50;65.70
34147;DHT22;20423;49.448;9.056;2023-06-14T11:31:37;23.40;65.90
34147;DHT22;20423;49.448;9.056;2023-06-14T11:36:57;24.50;64.60
34147;DHT22;20423;49.448;9.056;2023-06-14T11:39:25;24.90;64.70
34147;DHT22;20423;49.448;9.056;2023-06-14T11:41:52;24.40;64.10
34147;DHT22;20423;49.448;9.056;2023-06-14T11:44:18;24.20;64.90
34147;DHT22;20423;49.448;9.056;2023-06-14T11:46:44;24.30;65.10
34147;DHT22;20423;49.448;9.056;2023-06-14T11:49:09;24.40;66.20
34147;DHT22;20423;49.448;9.056;2023-06-14T11:54:35;23.90;66.10
34147;DHT22;20423;49.448;9.056;2023-06-14T11:57:00;23.90;67.70
34147;DHT22;20423;49.448;9.056;2023-06-14T11:59:26;24.00;67.50
34147;DHT22;20423;49.448;9.056;2023-06-14T12:04:50;24.00;66.30
34147;DHT22;20423;49.448;9.056;2023-06-14T12:07:18;24.10;64.10
34147;DHT22;20423;49.448;9.056;2023-06-14T12:12:38;25.60;63.10
34147;DHT22;20423;49.448;9.056;2023-06-14T12:15:05;26.10;62.40
34147;DHT22;20423;49.448;9.056;2023-06-14T12:17:32;25.40;63.20
34147;DHT22;20423;49.448;9.056;2023-06-14T12:19:57;24.70;65.40
34147;DHT22;20423;49.448;9.056;2023-06-14T12:22:27;24.50;66.20
34147;DHT22;20423;49.448;9.056;2023-06-14T12:24:53;24.30;66.00
34147;DHT22;20423;49.448;9.056;2023-06-14T12:27:18;24.00;66.60
34147;DHT22;20423;49.448;9.056;2023-06-14T12:29:58;24.00;65.40
34147;DHT22;20423;49.448;9.056;2023-06-14T12:32:23;24.20;65.70
34147;DHT22;20423;49.448;9.056;2023-06-14T12:34:58;24.30;65.30
34147;DHT22;20423;49.448;9.056;2023-06-14T12:37:24;24.40;65.80
34147;DHT22;20423;49.448;9.056;2023-06-14T12:39:50;24.50;67.00
34147;DHT22;20423;49.448;9.056;2023-06-14T12:42:16;24.70;65.60
34147;DHT22;20423;49.448;9.056;2023-06-14T12:47:26;24.10;64.00
34147;DHT22;20423;49.448;9.056;2023-06-14T12:49:52;24.70;63.80
34147;DHT22;20423;49.448;9.056;2023-06-14T12:52:17;26.40;61.20
34147;DHT22;20423;49.448;9.056;2023-06-14T12:54:43;27.40;60.10
34147;DHT22;20423;49.448;9.056;2023-06-14T12:57:09;28.00;58.90
34147;DHT22;20423;49.448;9.056;2023-06-14T12:59:35;27.10;58.30
34147;DHT22;20423;49.448;9.056;2023-06-14T13:02:11;26.60;58.30
34147;DHT22;20423;49.448;9.056;2023-06-14T13:04:37;26.80;58.50
34147;DHT22;20423;49.448;9.056;2023-06-14T13:07:02;26.50;59.70
34147;DHT22;20423;49.448;9.056;2023-06-14T13:09:28;26.50;59.90
34147;DHT22;20423;49.448;9.056;2023-06-14T13:11:53;26.30;61.40
34147;DHT22;20423;49.448;9.056;2023-06-14T13:14:19;26.00;61.30
34147;DHT22;20423;49.448;9.056;2023-06-14T13:16:45;25.50;61.30
34147;DHT22;20423;49.448;9.056;2023-06-14T13:19:11;25.10;60.80
34147;DHT22;20423;49.448;9.056;2023-06-14T13:21:36;25.60;59.90
34147;DHT22;20423;49.448;9.056;2023-06-14T13:24:02;26.30;58.50
34147;DHT22;20423;49.448;9.056;2023-06-14T13:26:28;26.10;58.70
34147;DHT22;20423;49.448;9.056;2023-06-14T13:28:54;26.80;58.90
34147;DHT22;20423;49.448;9.056;2023-06-14T13:31:21;27.90;57.30
34147;DHT22;20423;49.448;9.056;2023-06-14T13:33:47;28.40;57.20
34147;DHT22;20423;49.448;9.056;2023-06-14T13:36:13;28.60;56.50
34147;DHT22;20423;49.448;9.056;2023-06-14T13:38:39;28.20;56.70
34147;DHT22;20423;49.448;9.056;2023-06-14T13:41:05;27.50;58.00
34147;DHT22;20423;49.448;9.056;2023-06-14T13:43:31;26.60;58.40
34147;DHT22;20423;49.448;9.056;2023-06-14T13:45:56;25.60;58.60
34147;DHT22;20423;49.448;9.056;2023-06-14T13:48:22;25.30;60.50
34147;DHT22;20423;49.448;9.056;2023-06-14T13:50:47;24.90;62.70
34147;DHT22;20423;49.448;9.056;2023-06-14T13:53:13;24.80;61.00
34147;DHT22;20423;49.448;9.056;2023-06-14T13:59:08;27.10;58.20
34147;DHT22;20423;49.448;9.056;2023-06-14T14:01:34;29.20;57.00
34147;DHT22;20423;49.448;9.056;2023-06-14T14:04:00;29.90;55.40
34147;DHT22;20423;49.448;9.056;2023-06-14T14:06:26;29.90;54.60
34147;DHT22;20423;49.448;9.056;2023-06-14T14:08:51;29.20;54.80
34147;DHT22;20423;49.448;9.056;2023-06-14T14:11:18;28.70;56.10
34147;DHT22;20423;49.448;9.056;2023-06-14T14:13:44;28.40;55.70
34147;DHT22;20423;49.448;9.056;2023-06-14T14:16:10;28.20;56.20
34147;DHT22;20423;49.448;9.056;2023-06-14T14:18:36;28.60;56.30
34147;DHT22;20423;49.448;9.056;2023-06-14T14:21:02;28.40;55.40
34147;DHT22;20423;49.448;9.056;2023-06-14T14:23:28;28.20;56.00
34147;DHT22;20423;49.448;9.056;2023-06-14T14:25:54;28.80;56.00
34147;DHT22;20423;49.448;9.056;2023-06-14T14:28:20;29.20;55.60
34147;DHT22;20423;49.448;9.056;2023-06-14T14:30:46;29.10;54.00
34147;DHT22;20423;49.448;9.056;2023-06-14T14:33:16;29.10;54.80
34147;DHT22;20423;49.448;9.056;2023-06-14T14:38:42;30.10;54.10
34147;DHT22;20423;49.448;9.056;2023-06-14T14:41:07;29.40;54.40
34147;DHT22;20423;49.448;9.056;2023-06-14T14:43:33;28.20;54.60
34147;DHT22;20423;49.448;9.056;2023-06-14T14:45:58;26.90;56.80
34147;DHT22;20423;49.448;9.056;2023-06-14T14:48:24;25.70;58.70
34147;DHT22;20423;49.448;9.056;2023-06-14T14:50:50;25.20;58.90
34147;DHT22;20423;49.448;9.056;2023-06-14T14:53:25;24.80;59.50
34147;DHT22;20423;49.448;9.056;2023-06-14T14:55:50;24.80;60.20
34147;DHT22;20423;49.448;9.056;2023-06-14T14:58:16;25.00;59.40
34147;DHT22;20423;49.448;9.056;2023-06-14T15:00:45;25.30;59.50
34147;DHT22;20423;49.448;9.056;2023-06-14T15:03:11;25.30;60.00
34147;DHT22;20423;49.448;9.056;2023-06-14T15:05:36;25.70;59.20
34147;DHT22;20423;49.448;9.056;2023-06-14T15:08:05;25.20;59.50
34147;DHT22;20423;49.448;9.056;2023-06-14T15:10:40;24.70;60.00
34147;DHT22;20423;49.448;9.056;2023-06-14T15:13:10;24.30;60.20
34147;DHT22;20423;49.448;9.056;2023-06-14T15:15:36;23.70;62.10
34147;DHT22;20423;49.448;9.056;2023-06-14T15:18:02;23.30;62.10
34147;DHT22;20423;49.448;9.056;2023-06-14T15:20:27;23.00;62.90
34147;DHT22;20423;49.448;9.056;2023-06-14T15:22:53;23.20;63.80
34147;DHT22;20423;49.448;9.056;2023-06-14T15:25:27;23.90;61.70
34147;DHT22;20423;49.448;9.056;2023-06-14T15:27:54;25.50;58.50
34147;DHT22;20423;49.448;9.056;2023-06-14T15:30:20;26.60;56.50
34147;DHT22;20423;49.448;9.056;2023-06-14T15:32:45;27.40;56.70
34147;DHT22;20423;49.448;9.056;2023-06-14T15:35:11;27.60;54.40
34147;DHT22;20423;49.448;9.056;2023-06-14T15:37:37;27.70;54.80
34147;DHT22;20423;49.448;9.056;2023-06-14T15:40:04;28.40;54.30
34147;DHT22;20423;49.448;9.056;2023-06-14T15:42:30;29.50;54.50
34147;DHT22;20423;49.448;9.056;2023-06-14T15:44:55;29.60;52.80
34147;DHT22;20423;49.448;9.056;2023-06-14T15:47:21;29.50;52.40
34147;DHT22;20423;49.448;9.056;2023-06-14T15:49:47;30.00;52.60
34147;DHT22;20423;49.448;9.056;2023-06-14T15:55:41;30.80;52.10
34147;DHT22;20423;49.448;9.056;2023-06-14T15:58:06;31.50;50.40
34147;DHT22;20423;49.448;9.056;2023-06-14T16:00:33;31.90;49.70
34147;DHT22;20423;49.448;9.056;2023-06-14T16:02:58;32.50;49.30
34147;DHT22;20423;49.448;9.056;2023-06-14T16:05:24;32.80;50.30
34147;DHT22;20423;49.448;9.056;2023-06-14T16:07:50;32.90;49.60
34147;DHT22;20423;49.448;9.056;2023-06-14T16:10:15;32.50;48.80
34147;DHT22;20423;49.448;9.056;2023-06-14T16:12:41;31.10;49.50
34147;DHT22;20423;49.448;9.056;2023-06-14T16:15:07;29.80;51.30
34147;DHT22;20423;49.448;9.056;2023-06-14T16:17:32;28.40;53.10
34147;DHT22;20423;49.448;9.056;2023-06-14T16:19:58;27.30;54.40
34147;DHT22;20423;49.448;9.056;2023-06-14T16:22:23;26.20;55.60
34147;DHT22;20423;49.448;9.056;2023-06-14T16:24:49;25.50;57.10
34147;DHT22;20423;49.448;9.056;2023-06-14T16:27:15;24.80;57.90
34147;DHT22;20423;49.448;9.056;2023-06-14T16:29:40;24.40;58.80